Terminal Aerodrome Forecast
Issued by NWS

Home | Current Version | Previous Version | Graphics & Text | Print | Product List | Glossary On
Versions: 1 2 3 4 5 6 7 8 9 10 11 12 13 14 15 16 17 18
000
FTUS43 KOAX 252321
TAFCDR
TAF
KCDR 252321Z 2600/2624 03015G23KT P6SM OVC200
     FM260300 05012KT P6SM -SHRA OVC050
     FM260800 01011KT P6SM BKN012
     FM261700 03009KT P6SM OVC040=

USA.gov is the U.S. government's official web portal to all federal, state and local government web resources and services.